Weather History for Menominee, MI

Change the Weather History Date:

Monday, January 7, 2013

  Actual Average Record
Temperature  
Mean Temperature 25 °F -  
Max Temperature 33 °F 23 °F 45 °F (1961)
Min Temperature 17 °F 7 °F -21 °F (1968)
Degree Days  
Heating Degree Days 40    
Moisture  
Dew Point 18 °F    
Average Humidity 71    
Maximum Humidity 100    
Minimum Humidity 51    
Precipitation  
Precipitation 0.00 in - - ()
Sea Level Pressure  
Sea Level Pressure 30.00 in    
Wind  
Wind Speed 12 mph (SW)    
Max Wind Speed 25 mph    
Max Gust Speed 38 mph    
Visibility 10 miles    
Events      
Averages and records for this station are not official NWS values.
T = Trace of Precipitation, MM = Missing Value Source: NWS Daily Summary

Daily Weather History Graph

Daily Weather History Graph

Search for Another Location

Airport:

Trip Planner

Search our weather history database for the weather conditions in past years. The results will help you decide how hot, cold, wet, or windy it might be!

Date:

Astronomy

Jan. 07, 2013 Rise Set
Actual Time 7:28 AM CST 4:25 PM CST
Civil Twilight 6:55 AM CST 4:59 PM CST
Nautical Twilight 6:18 AM CST 5:35 PM CST
Astronomical Twilight 5:42 AM CST 6:11 PM CST
Moon 2:48 AM CST (1/7) 12:38 PM CST (1/7)
Length of Visible Light 10h 03m
Length of Day
8h 56m
Waning Crescent, 22% of the Moon is Illuminated
Jan 7
Waning Crescent
Jan 11
New
Jan 18
First Quarter
Jan 26
Full
Feb 3
Last Quarter

Hourly Weather History & Observations

Time (CST) Temp. Windchill Dew Point Humidity Pressure Visibility Wind Dir Wind Speed Gust Speed Precip Events Conditions
12:15 AM 17.6 °F 6.4 °F 15.8 °F 93% 30.20 in 10.0 mi SW 9.2 mph - N/A   Clear
12:35 AM 17.6 °F 7.3 °F 14.0 °F 86% 30.19 in 10.0 mi SW 8.1 mph - N/A   Clear
12:55 AM 17.6 °F 9.3 °F 12.2 °F 79% 30.19 in 10.0 mi SW 5.8 mph - N/A   Clear
1:15 AM 17.6 °F 7.3 °F 15.8 °F 93% 30.18 in 10.0 mi SW 8.1 mph - N/A   Clear
1:35 AM 17.6 °F 9.3 °F 14.0 °F 86% 30.19 in 10.0 mi SW 5.8 mph - N/A   Clear
1:55 AM 17.6 °F 8.2 °F 14.0 °F 86% 30.18 in 10.0 mi SW 6.9 mph - N/A   Clear
2:15 AM 17.6 °F 8.2 °F 14.0 °F 86% 30.18 in 10.0 mi SW 6.9 mph - N/A   Clear
2:35 AM 17.6 °F 7.3 °F 14.0 °F 86% 30.17 in 10.0 mi SW 8.1 mph - N/A   Clear
2:55 AM 17.6 °F 8.2 °F 12.2 °F 79% 30.16 in 10.0 mi SW 6.9 mph - N/A   Clear
3:15 AM 17.6 °F 6.4 °F 12.2 °F 79% 30.15 in 10.0 mi SW 9.2 mph - N/A   Clear
3:35 AM 17.6 °F 6.4 °F 12.2 °F 79% 30.15 in 10.0 mi SW 9.2 mph - N/A   Clear
3:55 AM 17.6 °F 7.3 °F 14.0 °F 86% 30.14 in 10.0 mi SW 8.1 mph - N/A   Clear
4:15 AM 17.6 °F 5.7 °F 15.8 °F 93% 30.12 in 10.0 mi SW 10.4 mph - N/A   Clear
4:35 AM 19.4 °F 9.5 °F 15.8 °F 86% 30.10 in 9.0 mi SSW 8.1 mph - N/A   Clear
4:55 AM 19.4 °F 6.6 °F 19.4 °F 100% 30.09 in 7.0 mi SSW 12.7 mph - N/A   Clear
5:15 AM 21.2 °F 8.9 °F 17.6 °F 86% 30.07 in 9.0 mi SSW 12.7 mph 20.7 mph N/A   Clear
5:35 AM 21.2 °F 8.3 °F 15.8 °F 80% 30.07 in 10.0 mi SW 13.8 mph - N/A   Clear
6:35 AM 21.2 °F 8.9 °F 12.2 °F 68% 30.06 in 10.0 mi SW 12.7 mph 20.7 mph N/A   Clear
6:55 AM 21.2 °F 6.4 °F 10.4 °F 63% 30.05 in 10.0 mi SW 18.4 mph - N/A   Clear
7:15 AM 21.2 °F 6.8 °F 10.4 °F 63% 30.05 in 10.0 mi SW 17.3 mph 25.3 mph N/A   Clear
7:35 AM 21.2 °F 6.0 °F 10.4 °F 63% 30.04 in 10.0 mi SW 19.6 mph 24.2 mph N/A   Clear
7:55 AM 21.2 °F 6.8 °F 12.2 °F 68% 30.03 in 10.0 mi SW 17.3 mph 29.9 mph N/A   Clear
8:15 AM 21.2 °F 4.9 °F 12.2 °F 68% 30.02 in 10.0 mi SW 23.0 mph 31.1 mph N/A   Clear
8:35 AM 23.0 °F 8.7 °F 14.0 °F 68% 30.01 in 10.0 mi SW 18.4 mph 27.6 mph N/A   Clear
8:55 AM 24.8 °F 9.6 °F 15.8 °F 69% 30.00 in 10.0 mi SW 23.0 mph 31.1 mph N/A   Clear
9:15 AM 26.6 °F 11.7 °F 15.8 °F 64% 30.00 in 10.0 mi SW 24.2 mph 38.0 mph N/A   Clear
9:35 AM 26.6 °F 12.4 °F 15.8 °F 64% 30.00 in 10.0 mi SW 21.9 mph 28.8 mph N/A   Clear
9:55 AM 26.6 °F 13.1 °F 17.6 °F 69% 29.99 in 10.0 mi SW 19.6 mph 27.6 mph N/A   Clear
10:15 AM 26.6 °F 14.3 °F 17.6 °F 69% 29.99 in 10.0 mi SW 16.1 mph 26.5 mph N/A   Clear
10:35 AM 28.4 °F 18.0 °F 15.8 °F 59% 29.98 in 10.0 mi SW 12.7 mph 19.6 mph N/A   Clear
10:55 AM 28.4 °F 16.6 °F 15.8 °F 59% 29.97 in 10.0 mi SW 16.1 mph 24.2 mph N/A   Clear
11:15 AM 30.2 °F 19.3 °F 17.6 °F 60% 29.95 in 10.0 mi SW 15.0 mph 21.9 mph N/A   Clear
11:35 AM 32.0 °F 20.1 °F 17.6 °F 55% 29.93 in 10.0 mi WSW 19.6 mph 29.9 mph N/A   Clear
11:55 AM 32.0 °F 19.8 °F 15.8 °F 51% 29.92 in 10.0 mi SW 20.7 mph 29.9 mph N/A   Clear
12:15 PM 32.0 °F 20.8 °F 15.8 °F 51% 29.91 in 10.0 mi SW 17.3 mph 27.6 mph N/A   Clear
12:35 PM 33.8 °F 23.2 °F 17.6 °F 52% 29.89 in 10.0 mi SW 17.3 mph 26.5 mph N/A   Clear
1:15 PM 33.8 °F 22.8 °F 17.6 °F 52% 29.89 in 10.0 mi SW 18.4 mph 28.8 mph N/A   Clear
1:35 PM 33.8 °F 21.0 °F 19.4 °F 56% 29.88 in 10.0 mi SW 25.3 mph 34.5 mph N/A   Clear
1:55 PM 33.8 °F 22.2 °F 19.4 °F 56% 29.88 in 10.0 mi SW 20.7 mph 28.8 mph N/A   Clear
2:15 PM 33.8 °F 23.2 °F 19.4 °F 56% 29.88 in 10.0 mi SW 17.3 mph 27.6 mph N/A   Clear
2:35 PM 33.8 °F 22.2 °F 21.2 °F 60% 29.87 in 10.0 mi SW 20.7 mph 29.9 mph N/A   Clear
2:55 PM 33.8 °F 25.3 °F 21.2 °F 60% 29.89 in 10.0 mi SW 11.5 mph 21.9 mph N/A   Clear
3:15 PM 33.8 °F 23.9 °F 21.2 °F 60% 29.89 in 10.0 mi SW 15.0 mph 20.7 mph N/A   Clear
3:35 PM 33.8 °F 24.8 °F 21.2 °F 60% 29.89 in 10.0 mi SW 12.7 mph 24.2 mph N/A   Clear
3:55 PM 33.8 °F 24.8 °F 21.2 °F 60% 29.89 in 10.0 mi SW 12.7 mph - N/A   Clear
4:15 PM 33.8 °F 24.8 °F 21.2 °F 60% 29.90 in 10.0 mi SW 12.7 mph 18.4 mph N/A   Clear
4:35 PM 32.0 °F 23.0 °F 21.2 °F 64% 29.90 in 10.0 mi SW 11.5 mph 17.3 mph N/A   Clear
5:15 PM 32.0 °F 23.0 °F 23.0 °F 69% 29.90 in 10.0 mi SW 11.5 mph 17.3 mph N/A   Clear
5:35 PM 33.8 °F 24.3 °F 23.0 °F 65% 29.90 in 10.0 mi SW 13.8 mph 17.3 mph N/A   Clear
5:55 PM 32.0 °F 23.0 °F 23.0 °F 69% 29.90 in 10.0 mi SW 11.5 mph 18.4 mph N/A   Clear
6:15 PM 32.0 °F 24.2 °F 24.8 °F 75% 29.91 in 10.0 mi SW 9.2 mph - N/A   Clear
6:35 PM 32.0 °F 23.6 °F 24.8 °F 75% 29.92 in 10.0 mi WSW 10.4 mph 18.4 mph N/A   Clear
6:55 PM 32.0 °F 23.0 °F 24.8 °F 75% 29.92 in 10.0 mi SW 11.5 mph 16.1 mph N/A   Clear
7:15 PM 32.0 °F 23.0 °F 21.2 °F 64% 29.92 in 10.0 mi SW 11.5 mph 16.1 mph N/A   Clear
7:35 PM 32.0 °F 23.6 °F 23.0 °F 69% 29.92 in 10.0 mi SW 10.4 mph - N/A   Clear
7:55 PM 32.0 °F 22.5 °F 23.0 °F 69% 29.92 in 10.0 mi SW 12.7 mph 18.4 mph N/A   Clear
8:15 PM 32.0 °F 23.6 °F 23.0 °F 69% 29.93 in 10.0 mi WSW 10.4 mph 17.3 mph N/A   Clear
8:35 PM 32.0 °F 24.2 °F 23.0 °F 69% 29.93 in 10.0 mi WSW 9.2 mph - N/A   Clear
8:55 PM 30.2 °F 21.3 °F 24.8 °F 80% 29.93 in 10.0 mi WSW 10.4 mph - N/A   Clear
9:15 PM 30.2 °F 21.9 °F 23.0 °F 75% 29.94 in 10.0 mi WSW 9.2 mph 17.3 mph N/A   Clear
9:35 PM 30.2 °F 21.9 °F 23.0 °F 75% 29.94 in 10.0 mi WSW 9.2 mph - N/A   Clear
9:55 PM 30.2 °F 21.9 °F 23.0 °F 75% 29.95 in 10.0 mi WSW 9.2 mph - N/A   Clear
10:15 PM 30.2 °F 21.9 °F 23.0 °F 75% 29.95 in 10.0 mi WSW 9.2 mph - N/A   Clear
10:35 PM 30.2 °F 21.9 °F 24.8 °F 80% 29.95 in 10.0 mi WSW 9.2 mph - N/A   Clear
10:55 PM 30.2 °F 23.4 °F 21.2 °F 69% 29.96 in 10.0 mi WSW 6.9 mph - N/A   Clear
11:15 PM 30.2 °F 23.4 °F 21.2 °F 69% 29.96 in 10.0 mi WSW 6.9 mph - N/A   Clear
11:35 PM 30.2 °F 23.4 °F 23.0 °F 75% 29.97 in 10.0 mi WSW 6.9 mph - N/A   Partly Cloudy
11:55 PM 30.2 °F 22.6 °F 23.0 °F 75% 29.97 in 10.0 mi WSW 8.1 mph - N/A   Partly Cloudy